Time;durP1;ratioP1;P1;durP2;ratioP2;P2;SDS_P1;SDS_P2;PMS_P1;PMS_P2;Temp;Humidity;BMP_temperature;BMP_pressure;BME280_temperature;BME280_humidity;BME280_pressure;Samples;Min_cycle;Max_cycle;Signal;HPM_P1;HPM_P2
2023/11/16 05:06:44;;;;;;;;;7.25;7.25;;;;;;;;6111110;46;10000988;-64
2023/11/16 05:12:59;;;;;;;;;8.00;8.00;;;;;;;;6492955;39;8915;-63
2023/11/16 05:26:25;;;;;;;;;11.75;9.25;;;;;;;;6495709;39;9105;-65
2023/11/16 05:32:38;;;;;;;;;10.00;9.00;;;;;;;;6491327;39;9769;-64
2023/11/16 05:38:52;;;;;;;;;8.00;8.00;;;;;;;;6493014;39;9587;-64
2023/11/16 05:45:00;;;;;;;;;8.00;6.00;;;;;;;;6492608;46;8908;-65
2023/11/16 05:51:04;;;;;;;;;9.00;8.50;;;;;;;;6493057;31;9001;-64
2023/11/16 05:57:10;;;;;;;;;10.00;10.00;;;;;;;;6493248;46;9001;-63
2023/11/16 06:03:15;;;;;;;;;13.75;11.00;;;;;;;;6491787;39;9585;-66
2023/11/16 06:09:21;;;;;;;;;10.75;10.75;;;;;;;;6491621;39;8924;-63
2023/11/16 06:15:28;;;;;;;;;9.00;9.00;;;;;;;;6493094;39;9824;-66
2023/11/16 06:21:45;;;;;;;;;18.25;13.25;;;;;;;;6491649;39;8876;-66
2023/11/16 06:27:48;;;;;;;;;13.50;10.00;;;;;;;;6492112;46;8878;-67
2023/11/16 06:34:01;;;;;;;;;18.00;14.75;;;;;;;;6492078;39;8995;-67
2023/11/16 06:40:15;;;;;;;;;8.00;8.00;;;;;;;;6492429;39;8940;-67
2023/11/16 06:46:19;;;;;;;;;11.00;11.00;;;;;;;;6491445;31;8925;-67
2023/11/16 06:52:23;;;;;;;;;14.00;11.75;;;;;;;;6491850;31;9070;-66
2023/11/16 06:58:34;;;;;;;;;13.75;13.75;;;;;;;;6492934;31;9054;-67
2023/11/16 07:04:48;;;;;;;;;14.00;12.50;;;;;;;;6491431;39;8867;-67
2023/11/16 07:11:00;;;;;;;;;13.75;13.75;;;;;;;;6490198;31;9013;-66
2023/11/16 07:17:07;;;;;;;;;11.75;10.75;;;;;;;;6488974;46;8945;-66
2023/11/16 07:23:12;;;;;;;;;16.50;16.25;;;;;;;;6490279;39;8995;-65
2023/11/16 07:29:18;;;;;;;;;16.00;14.25;;;;;;;;6490503;47;8857;-66
2023/11/16 07:35:25;;;;;;;;;13.50;11.00;;;;;;;;6490896;39;8962;-67
2023/11/16 07:41:31;;;;;;;;;10.25;10.25;;;;;;;;6492302;31;8940;-68
2023/11/16 07:47:33;;;;;;;;;14.25;13.50;;;;;;;;6490365;47;8908;-67
2023/11/16 07:53:36;;;;;;;;;7.50;6.50;;;;;;;;6491710;31;8907;-66
2023/11/16 07:59:42;;;;;;;;;19.00;19.00;;;;;;;;6489292;39;9020;-68
2023/11/16 08:05:46;;;;;;;;;12.00;11.00;;;;;;;;6489352;39;8959;-67
2023/11/16 08:11:53;;;;;;;;;10.75;10.25;;;;;;;;6489348;39;8919;-69
2023/11/16 08:17:57;;;;;;;;;14.75;12.75;;;;;;;;6489459;31;8948;-68
2023/11/16 08:24:00;;;;;;;;;12.67;9.67;;;;;;;;6490727;31;8864;-66
2023/11/16 08:30:07;;;;;;;;;11.00;11.00;;;;;;;;6488962;39;8904;-67
2023/11/16 08:36:11;;;;;;;;;11.50;11.00;;;;;;;;6491407;39;8873;-67
2023/11/16 08:42:15;;;;;;;;;11.50;9.25;;;;;;;;6492042;39;9011;-68
2023/11/16 08:48:30;;;;;;;;;7.25;6.25;;;;;;;;6491474;46;8923;-68
2023/11/16 08:54:33;;;;;;;;;8.00;8.00;;;;;;;;6492515;39;8846;-67
2023/11/16 09:00:37;;;;;;;;;13.00;11.50;;;;;;;;6491685;39;8966;-68
2023/11/16 09:06:43;;;;;;;;;12.00;10.00;;;;;;;;6491081;46;8930;-68
2023/11/16 09:12:48;;;;;;;;;12.33;12.33;;;;;;;;6493165;39;8928;-68
2023/11/16 09:18:51;;;;;;;;;7.00;6.00;;;;;;;;6492093;31;8976;-69
2023/11/16 09:24:57;;;;;;;;;7.67;6.67;;;;;;;;6491458;39;8936;-67
2023/11/16 09:31:01;;;;;;;;;8.00;6.67;;;;;;;;6491288;39;8906;-69
2023/11/16 09:37:03;;;;;;;;;6.67;6.67;;;;;;;;6491372;39;8975;-69
2023/11/16 09:43:20;;;;;;;;;7.00;7.00;;;;;;;;6489118;39;9013;-69
2023/11/16 09:49:24;;;;;;;;;15.67;13.67;;;;;;;;6489000;31;8940;-70
2023/11/16 09:55:32;;;;;;;;;5.67;4.00;;;;;;;;6490918;39;9514;-67
2023/11/16 10:01:38;;;;;;;;;7.00;7.00;;;;;;;;6489219;39;9134;-68
2023/11/16 10:07:40;;;;;;;;;6.00;4.00;;;;;;;;6489460;39;8916;-67
2023/11/16 10:13:53;;;;;;;;;4.00;4.00;;;;;;;;6488419;46;8924;-67
2023/11/16 10:19:56;;;;;;;;;8.33;7.00;;;;;;;;6488671;39;8920;-68
2023/11/16 10:25:59;;;;;;;;;10.33;7.00;;;;;;;;6490299;39;8922;-67
2023/11/16 10:32:04;;;;;;;;;8.00;6.00;;;;;;;;6489409;39;8915;-68
2023/11/16 10:38:10;;;;;;;;;7.33;6.67;;;;;;;;6489242;39;8915;-67
2023/11/16 10:44:13;;;;;;;;;4.00;4.00;;;;;;;;6489742;39;8923;-67
2023/11/16 10:50:15;;;;;;;;;7.67;6.67;;;;;;;;6488726;31;8961;-68
2023/11/16 10:56:18;;;;;;;;;4.00;4.00;;;;;;;;6489116;39;9516;-65
2023/11/16 11:02:23;;;;;;;;;7.00;7.00;;;;;;;;6488390;46;8947;-67
2023/11/16 11:08:42;;;;;;;;;4.00;4.00;;;;;;;;6488153;39;8880;-68
2023/11/16 11:14:47;;;;;;;;;6.00;3.00;;;;;;;;6488413;31;9035;-67
2023/11/16 11:20:52;;;;;;;;;5.33;5.33;;;;;;;;6488674;39;8852;-68
2023/11/16 11:26:54;;;;;;;;;3.00;2.00;;;;;;;;6490025;31;9566;-68
2023/11/16 11:33:05;;;;;;;;;2.00;2.00;;;;;;;;6487490;47;8927;-67
2023/11/16 11:39:14;;;;;;;;;3.00;3.00;;;;;;;;6488587;39;8963;-68
2023/11/16 11:45:19;;;;;;;;;4.00;4.00;;;;;;;;6488308;47;8907;-65
2023/11/16 11:51:28;;;;;;;;;7.33;5.00;;;;;;;;6487577;39;8960;-66
2023/11/16 11:57:30;;;;;;;;;4.33;3.00;;;;;;;;6488269;39;8922;-69
2023/11/16 12:04:00;;;;;;;;;7.33;3.67;;;;;;;;6486933;39;8980;-68
2023/11/16 12:10:17;;;;;;;;;11.67;9.67;;;;;;;;6489285;31;8930;-67
2023/11/16 12:16:23;;;;;;;;;9.00;7.67;;;;;;;;6488746;46;9039;-66
2023/11/16 12:22:30;;;;;;;;;7.33;6.33;;;;;;;;6489911;46;8975;-68
2023/11/16 12:28:33;;;;;;;;;8.00;8.00;;;;;;;;6489275;39;8946;-67
2023/11/16 12:34:37;;;;;;;;;4.00;4.00;;;;;;;;6486957;39;8918;-68
2023/11/16 12:40:41;;;;;;;;;4.00;4.00;;;;;;;;6488771;31;8975;-68
2023/11/16 12:46:45;;;;;;;;;3.00;3.00;;;;;;;;6487450;39;8915;-66
2023/11/16 12:52:48;;;;;;;;;5.00;4.00;;;;;;;;6490038;46;8872;-68
2023/11/16 12:58:50;;;;;;;;;3.00;3.00;;;;;;;;6489538;39;9036;-67
2023/11/16 13:04:53;;;;;;;;;4.00;4.00;;;;;;;;6489464;39;9038;-68
2023/11/16 13:10:56;;;;;;;;;6.33;3.33;;;;;;;;6493014;39;8885;-69
2023/11/16 13:16:59;;;;;;;;;3.00;3.00;;;;;;;;6491176;39;8943;-67
2023/11/16 13:23:06;;;;;;;;;2.00;2.00;;;;;;;;6492461;39;8865;-65
2023/11/16 13:29:12;;;;;;;;;4.00;4.00;;;;;;;;6492244;31;9570;-66
2023/11/16 13:35:16;;;;;;;;;4.00;4.00;;;;;;;;6490740;39;8928;-67
2023/11/16 13:41:19;;;;;;;;;4.00;4.00;;;;;;;;6493119;31;9046;-68
2023/11/16 13:47:21;;;;;;;;;5.00;3.00;;;;;;;;6491501;46;8946;-68
2023/11/16 13:53:26;;;;;;;;;6.00;6.00;;;;;;;;6491465;39;8851;-68
2023/11/16 13:59:30;;;;;;;;;3.00;2.33;;;;;;;;6491304;39;9063;-66
2023/11/16 14:05:37;;;;;;;;;5.67;5.00;;;;;;;;6490775;39;9625;-66
2023/11/16 14:11:39;;;;;;;;;4.00;4.00;;;;;;;;6491436;46;8895;-66
2023/11/16 14:17:42;;;;;;;;;2.33;2.33;;;;;;;;6490192;46;8855;-67
2023/11/16 14:23:46;;;;;;;;;2.33;2.33;;;;;;;;6491910;31;9432;-68
2023/11/16 14:29:50;;;;;;;;;4.33;4.33;;;;;;;;6491067;39;8937;-66
2023/11/16 14:35:54;;;;;;;;;4.00;4.00;;;;;;;;6491407;39;8896;-66
2023/11/16 14:41:57;;;;;;;;;10.33;9.67;;;;;;;;6491039;39;8924;-67
2023/11/16 14:47:59;;;;;;;;;12.67;9.00;;;;;;;;6490237;39;9482;-68
2023/11/16 14:54:02;;;;;;;;;5.33;5.33;;;;;;;;6492357;31;8829;-68
2023/11/16 15:00:06;;;;;;;;;6.33;6.33;;;;;;;;6490563;46;9013;-66
2023/11/16 15:06:10;;;;;;;;;8.00;7.00;;;;;;;;6490043;39;8974;-68
2023/11/16 15:12:13;;;;;;;;;6.33;6.33;;;;;;;;6491662;31;8845;-67
2023/11/16 15:18:18;;;;;;;;;5.33;5.33;;;;;;;;6490427;39;8992;-67
2023/11/16 15:24:20;;;;;;;;;6.00;6.00;;;;;;;;6491494;39;8801;-67
2023/11/16 15:30:24;;;;;;;;;7.67;7.00;;;;;;;;6490908;39;8883;-66
2023/11/16 15:36:29;;;;;;;;;4.33;4.33;;;;;;;;6489667;47;8991;-66
2023/11/16 15:42:34;;;;;;;;;9.67;8.00;;;;;;;;6491168;46;8915;-65
2023/11/16 15:48:37;;;;;;;;;14.67;13.00;;;;;;;;6491796;46;8905;-65
2023/11/16 15:54:42;;;;;;;;;14.67;13.00;;;;;;;;6493497;39;8844;-65
2023/11/16 16:00:45;;;;;;;;;12.00;12.00;;;;;;;;6492312;39;8925;-65
2023/11/16 16:06:47;;;;;;;;;15.50;12.50;;;;;;;;6493768;31;8938;-65
2023/11/16 16:12:50;;;;;;;;;19.75;19.75;;;;;;;;6492939;46;8953;-66
2023/11/16 16:18:55;;;;;;;;;14.67;13.33;;;;;;;;6492503;31;8934;-65
2023/11/16 16:24:57;;;;;;;;;12.25;11.00;;;;;;;;6493214;46;8821;-65
2023/11/16 16:31:05;;;;;;;;;15.75;13.00;;;;;;;;6491987;46;8910;-64
2023/11/16 16:37:07;;;;;;;;;13.00;13.00;;;;;;;;6492004;39;8959;-65
2023/11/16 16:43:09;;;;;;;;;19.25;18.00;;;;;;;;6492345;39;8903;-64
2023/11/16 16:49:15;;;;;;;;;21.00;19.00;;;;;;;;6492085;39;8857;-66
2023/11/16 16:55:17;;;;;;;;;22.00;21.00;;;;;;;;6492625;39;8854;-68
2023/11/16 17:01:23;;;;;;;;;19.75;19.50;;;;;;;;6491336;46;9113;-65
2023/11/16 17:07:27;;;;;;;;;22.25;21.00;;;;;;;;6491853;31;9732;-65
2023/11/16 17:13:40;;;;;;;;;22.50;20.25;;;;;;;;6492575;39;9553;-66
2023/11/16 17:19:43;;;;;;;;;23.50;21.00;;;;;;;;6492113;39;8969;-65
2023/11/16 17:25:49;;;;;;;;;25.50;22.50;;;;;;;;6492122;46;9028;-65
2023/11/16 17:31:55;;;;;;;;;30.00;26.25;;;;;;;;6492980;39;9584;-64
2023/11/16 17:38:06;;;;;;;;;25.00;23.75;;;;;;;;6490315;39;8910;-65
2023/11/16 17:44:19;;;;;;;;;37.50;36.00;;;;;;;;6492507;39;9057;-64
2023/11/16 17:50:35;;;;;;;;;35.00;33.25;;;;;;;;6491564;46;8928;-64
2023/11/16 17:56:42;;;;;;;;;32.75;26.75;;;;;;;;6490777;31;8889;-64
2023/11/16 18:02:45;;;;;;;;;21.25;19.00;;;;;;;;6491952;47;8926;-64
2023/11/16 18:08:48;;;;;;;;;28.00;26.25;;;;;;;;6491782;39;8908;-63
2023/11/16 18:14:52;;;;;;;;;31.75;31.25;;;;;;;;6491573;39;8940;-65
2023/11/16 18:20:57;;;;;;;;;30.25;26.25;;;;;;;;6491718;39;8889;-64
2023/11/16 18:27:00;;;;;;;;;30.50;28.50;;;;;;;;6491695;46;9033;-67
2023/11/16 18:33:07;;;;;;;;;29.00;26.25;;;;;;;;6493018;39;9550;-67
2023/11/16 18:39:09;;;;;;;;;41.00;34.75;;;;;;;;6492481;46;8887;-65
2023/11/16 18:45:14;;;;;;;;;32.00;29.25;;;;;;;;6492757;39;8902;-67
2023/11/16 18:51:20;;;;;;;;;37.75;36.00;;;;;;;;6492759;46;8802;-65
2023/11/16 18:57:31;;;;;;;;;40.75;35.00;;;;;;;;6491114;39;8974;-66
2023/11/16 19:03:38;;;;;;;;;33.50;32.25;;;;;;;;6492977;39;8854;-64
2023/11/16 19:09:48;;;;;;;;;39.75;37.50;;;;;;;;6492681;31;9706;-66
2023/11/16 19:15:53;;;;;;;;;39.25;36.25;;;;;;;;6490847;39;9025;-63
2023/11/16 19:22:06;;;;;;;;;44.75;37.25;;;;;;;;6490564;39;8914;-66
2023/11/16 19:28:14;;;;;;;;;42.25;39.25;;;;;;;;6490745;31;10154;-65
2023/11/16 19:34:17;;;;;;;;;34.75;30.00;;;;;;;;6490342;47;8909;-65
2023/11/16 19:40:23;;;;;;;;;32.75;31.25;;;;;;;;6491643;39;8945;-66
2023/11/16 19:46:42;;;;;;;;;27.75;25.75;;;;;;;;6492115;39;9060;-65
2023/11/16 19:52:44;;;;;;;;;24.50;24.25;;;;;;;;6491674;47;8949;-66
2023/11/16 19:58:47;;;;;;;;;28.75;25.50;;;;;;;;6492897;47;8979;-65
2023/11/16 20:04:54;;;;;;;;;25.50;21.50;;;;;;;;6491638;47;8880;-65
2023/11/16 20:11:04;;;;;;;;;22.75;21.00;;;;;;;;6491341;39;9154;-65
2023/11/16 20:17:13;;;;;;;;;20.25;19.00;;;;;;;;6490839;39;8912;-65
2023/11/16 20:23:19;;;;;;;;;20.50;17.75;;;;;;;;6492620;39;8909;-64
2023/11/16 20:29:21;;;;;;;;;24.00;22.75;;;;;;;;6492437;39;8871;-66
2023/11/16 20:35:30;;;;;;;;;23.25;20.00;;;;;;;;6495050;31;9512;-65
2023/11/16 20:41:36;;;;;;;;;23.00;21.25;;;;;;;;6493620;39;8896;-64
2023/11/16 20:47:49;;;;;;;;;23.00;21.50;;;;;;;;6495226;46;8840;-62
2023/11/16 20:53:52;;;;;;;;;23.75;22.75;;;;;;;;6492451;46;8915;-66
2023/11/16 21:00:11;;;;;;;;;21.75;19.00;;;;;;;;6491892;46;9008;-66
2023/11/16 21:06:18;;;;;;;;;24.00;23.50;;;;;;;;6492459;39;8977;-65
2023/11/16 21:12:20;;;;;;;;;24.75;21.25;;;;;;;;6493995;39;8992;-64
2023/11/16 21:18:27;;;;;;;;;23.00;20.00;;;;;;;;6493236;46;9038;-63
2023/11/16 21:24:31;;;;;;;;;18.25;16.75;;;;;;;;6492325;46;8867;-65
2023/11/16 21:30:41;;;;;;;;;21.00;16.33;;;;;;;;6492716;39;9048;-64
2023/11/16 21:36:44;;;;;;;;;24.25;23.00;;;;;;;;6493345;31;8858;-65
2023/11/16 21:42:47;;;;;;;;;21.75;18.25;;;;;;;;6491179;46;8948;-64
2023/11/16 21:48:55;;;;;;;;;27.25;24.75;;;;;;;;6491781;46;8993;-63
2023/11/16 21:54:58;;;;;;;;;26.25;24.50;;;;;;;;6493452;39;9052;-65
2023/11/16 22:01:02;;;;;;;;;30.00;26.00;;;;;;;;6491553;46;8947;-65
2023/11/16 22:07:06;;;;;;;;;31.00;27.00;;;;;;;;6492525;39;9017;-64
2023/11/16 22:13:09;;;;;;;;;27.50;24.25;;;;;;;;6493705;39;8915;-63
2023/11/16 22:19:15;;;;;;;;;31.50;28.75;;;;;;;;6492084;39;9479;-65
2023/11/16 22:25:18;;;;;;;;;38.00;35.50;;;;;;;;6493551;39;9559;-65
2023/11/16 22:31:22;;;;;;;;;30.50;29.00;;;;;;;;6492077;31;8898;-64
2023/11/16 22:37:28;;;;;;;;;30.75;27.25;;;;;;;;6493344;31;8891;-64
2023/11/16 22:43:30;;;;;;;;;32.50;30.00;;;;;;;;6493060;39;8925;-65
2023/11/16 22:49:33;;;;;;;;;30.50;28.50;;;;;;;;6492128;31;8923;-64
2023/11/16 22:55:38;;;;;;;;;28.75;28.75;;;;;;;;6493794;39;8862;-64
2023/11/16 23:01:41;;;;;;;;;33.50;31.00;;;;;;;;6492127;31;9582;-63
2023/11/16 23:07:44;;;;;;;;;25.00;22.00;;;;;;;;6492881;31;8944;-64
2023/11/16 23:13:50;;;;;;;;;40.00;36.50;;;;;;;;6491903;46;8834;-64
2023/11/16 23:19:53;;;;;;;;;36.00;35.75;;;;;;;;6491432;39;9002;-63
2023/11/16 23:25:56;;;;;;;;;35.50;30.75;;;;;;;;6493377;39;8854;-64
2023/11/16 23:31:59;;;;;;;;;33.50;30.50;;;;;;;;6492519;39;8845;-65
2023/11/16 23:38:01;;;;;;;;;34.25;31.75;;;;;;;;6491561;39;8918;-64
2023/11/16 23:44:03;;;;;;;;;34.50;32.75;;;;;;;;6493113;31;9476;-64
2023/11/16 23:50:08;;;;;;;;;31.00;30.50;;;;;;;;6491619;47;9014;-65
2023/11/16 23:56:12;;;;;;;;;38.50;34.00;;;;;;;;6492386;47;8846;-65
